Latest Weather Observations for Ceduna

IDS60801

Issued at 6:35 pm CDT Monday 20 October 2014 (issued every 30 minutes, with the page automatically refreshed every 10 minutes)

About weather observations | Map of weather stations | Latest weather observations for SA | Other Formats
Station Details ID: 018012 Name: CEDUNA AMO Lat: -32.13 Lon: 133.70 Height: 15.3 m
Data from the previous 72 hours. | See also: Recent months at Ceduna
Date/Time
CDT
Temp
°C
App
Temp
°C
Dew
Point
Rel
Hum
%
Delta-T
°C
Wind Press
QNH
hPa
Press
MSL
hPa
Rain
since 9 am
mm
Dir
 
Spd
km/h
Gust
km/h
Spd
kts
Gust
kts
20/06:18pm 33.2 25.8 3.8 15 15.3 WSW 32 39 17 21 1012.4 1012.4 0.0
20/05:30pm 38.4 32.1 -16.4 2 21.5 S 15 20 8 11 1012.2 1012.2 0.0
20/05:00pm 37.7 33.3 -6.0 6 20.0 S 9 20 5 11 1012.4 1012.4 0.0
20/04:30pm 40.1 - - - - NW 19 30 10 16 1012.6 1012.6 0.0
20/04:00pm 39.8 33.4 -42.1 0 23.1 NW 13 24 7 13 1013.0 1013.0 0.0
20/03:30pm 39.5 32.3 -46.1 0 22.9 NNE 17 28 9 15 1013.3 1013.3 0.0
20/03:00pm 39.1 32.7 -46.0 0 22.7 NNE 13 19 7 10 1013.9 1013.9 0.0
20/02:30pm 39.0 - - - - N 26 43 14 23 1014.4 1014.4 0.0
20/02:00pm 39.1 31.3 -52.7 0 22.7 N 20 32 11 17 1014.9 1014.9 0.0
20/01:30pm 38.3 - - - - N 24 37 13 20 1015.2 1015.2 0.0
20/01:00pm 37.9 30.3 -30.9 1 21.8 NNE 20 32 11 17 1015.5 1015.5 0.0
20/12:30pm 37.2 27.1 -51.6 0 21.6 N 32 41 17 22 1016.1 1016.1 0.0
20/12:00pm 36.2 26.2 -46.1 0 21.0 NNE 32 43 17 23 1016.6 1016.6 0.0
20/11:30am 35.6 26.1 -28.5 1 20.4 NNE 30 41 16 22 1017.1 1017.1 0.0
20/11:00am 34.7 24.7 -33.4 1 20.0 NNE 32 43 17 23 1017.6 1017.6 0.0
20/10:30am 34.1 24.7 -24.4 2 19.4 NNE 30 41 16 22 1018.0 1018.0 0.0
20/10:00am 32.5 23.5 -22.1 2 18.4 NNE 28 39 15 21 1018.2 1018.2 0.0
20/09:30am 30.6 22.1 -19.3 3 17.2 NNE 26 35 14 19 1018.1 1018.1 0.0
20/09:00am 26.5 18.6 -15.3 5 14.7 NE 24 28 13 15 1018.0 1018.0 0.0
20/08:30am 23.7 16.6 -14.6 7 13.2 NE 20 28 11 15 1017.9 1017.9 0.0
20/08:00am 21.1 14.0 -13.6 8 11.8 ENE 20 26 11 14 1017.4 1017.4 0.0
20/07:30am 18.6 11.5 -13.5 10 10.6 NE 20 24 11 13 1017.0 1017.0 0.0
20/07:00am 18.5 12.0 -13.0 10 10.5 NE 17 20 9 11 1016.7 1016.7 0.0
20/06:30am 19.3 12.3 -15.1 8 11.1 NE 19 22 10 12 1016.5 1016.5 0.0
20/06:00am 19.6 12.5 -14.6 9 11.2 NE 20 24 11 13 1016.2 1016.2 0.0
20/05:30am 19.7 12.5 -15.1 8 11.3 NNE 20 26 11 14 1016.1 1016.1 0.0
20/05:00am 20.8 12.4 -17.0 6 12.0 NE 26 32 14 17 1015.9 1015.9 0.0
20/04:30am 21.2 12.8 -15.9 7 12.1 NE 26 32 14 17 1015.9 1015.9 0.0
20/04:00am 21.4 13.5 -14.9 7 12.1 NE 24 30 13 16 1015.7 1015.7 0.0
20/03:30am 20.3 12.4 -14.3 8 11.5 ENE 24 32 13 17 1015.8 1015.8 0.0
20/03:00am 16.9 9.8 -8.4 17 9.1 ENE 22 24 12 13 1016.1 1016.1 0.0
20/02:30am 17.7 10.4 -6.3 19 9.1 ENE 24 28 13 15 1016.3 1016.3 0.0
20/02:00am 18.7 11.5 -4.9 19 9.3 E 24 28 13 15 1016.6 1016.6 0.0
20/01:30am 18.9 12.3 -3.0 22 9.0 E 22 26 12 14 1017.0 1017.0 0.0
20/01:00am 18.8 12.9 -2.4 23 8.8 E 19 20 10 11 1017.2 1017.2 0.0
20/12:30am 19.2 13.2 -1.9 24 8.9 E 20 24 11 13 1017.2 1017.2 0.0
20/12:00am 21.2 15.4 -1.8 21 9.9 E 19 24 10 13 1017.1 1017.1 0.0
 
Date/Time
CDT
Temp
°C
App
Temp
°C
Dew
Point
Rel
Hum
%
Delta-T
°C
Wind Press
QNH
hPa
Press
MSL
hPa
Rain
since 9 am
mm
Dir
 
Spd
km/h
Gust
km/h
Spd
kts
Gust
kts
19/11:30pm 22.4 16.5 -2.2 19 10.6 E 19 24 10 13 1017.2 1017.2 0.0
19/11:00pm 23.0 16.9 -2.1 18 10.9 ESE 20 26 11 14 1017.2 1017.2 0.0
19/10:30pm 20.6 15.5 0.5 26 9.0 ESE 17 19 9 10 1017.3 1017.3 0.0
19/10:00pm 19.6 14.6 1.5 30 8.2 ESE 17 19 9 10 1017.2 1017.2 0.0
19/09:30pm 22.5 17.4 0.9 24 9.9 SE 17 20 9 11 1016.9 1016.9 0.0
19/09:00pm 24.0 18.1 -0.6 19 11.1 SE 20 26 11 14 1016.7 1016.7 0.0
19/08:30pm 24.8 19.1 0.7 20 11.2 SE 20 24 11 13 1016.4 1016.4 0.0
19/08:00pm 25.6 20.3 2.8 22 11.1 SE 20 26 11 14 1015.8 1015.8 0.0
19/07:30pm 25.6 21.2 7.2 31 9.7 SE 20 24 11 13 1015.6 1015.6 0.0
19/07:00pm 26.0 20.4 7.0 29 10.0 SE 26 35 14 19 1015.4 1015.4 0.0
19/06:30pm 25.8 22.2 10.4 38 8.6 SSE 20 26 11 14 1015.3 1015.3 0.0
19/06:00pm 26.7 21.9 10.2 35 9.2 SSE 26 33 14 18 1015.3 1015.3 0.0
19/05:30pm 31.0 25.2 2.5 16 14.3 SSE 22 28 12 15 1015.1 1015.1 0.0
19/05:00pm 29.7 24.1 3.7 19 13.2 SSE 22 30 12 16 1015.0 1015.0 0.0
19/04:30pm 29.9 24.1 4.5 20 13.1 SSE 24 28 13 15 1014.9 1014.9 0.0
19/04:00pm 28.3 23.0 5.0 22 12.0 SSE 22 30 12 16 1015.3 1015.3 0.0
19/03:30pm 29.4 23.9 5.8 22 12.4 SSE 24 30 13 16 1015.5 1015.5 0.0
19/03:00pm 28.8 22.9 3.9 20 12.6 SSE 24 33 13 18 1015.9 1015.9 0.0
19/02:30pm 29.4 23.2 1.9 17 13.5 S 24 32 13 17 1016.4 1016.4 0.0
19/02:00pm 28.3 22.0 1.8 18 12.9 S 24 37 13 20 1016.7 1016.7 0.0
19/01:30pm 31.4 25.7 2.6 16 14.5 SSW 22 32 12 17 1016.6 1016.6 0.0
19/01:00pm 33.3 27.5 -4.4 8 17.1 WSW 17 30 9 16 1016.7 1016.7 0.0
19/12:30pm 34.7 27.4 -23.2 2 19.7 NNW 19 28 10 15 1016.9 1016.9 0.0
19/12:00pm 34.7 25.5 -32.9 1 20.0 N 28 41 15 22 1016.6 1016.6 0.0
19/11:30am 33.6 23.6 -26.2 1 19.2 N 33 43 18 23 1016.7 1016.7 0.0
19/11:00am 32.6 21.5 -22.8 2 18.5 N 39 52 21 28 1016.9 1016.9 0.0
19/10:31am 32.2 21.5 -23.2 2 18.3 N 37 56 20 30 1017.0 1017.0 0.0
19/10:30am 31.9 20.8 -22.5 2 18.1 N 39 56 21 30 1017.0 1017.0 0.0
19/10:02am 29.9 18.8 -22.3 2 17.0 N 39 57 21 31 1017.0 1017.0 0.0
19/10:00am 29.9 19.3 -20.5 3 16.9 N 37 48 20 26 1017.0 1017.0 0.0
19/09:32am 28.5 18.4 -16.8 4 15.9 N 35 54 19 29 1017.0 1017.0 0.0
19/09:30am 28.6 18.5 -16.2 4 15.9 N 35 48 19 26 1017.0 1017.0 0.0
19/09:00am 26.7 16.6 -16.3 5 14.9 N 35 48 19 26 1016.9 1016.9 0.0
19/08:30am 25.3 15.7 -14.4 6 14.0 N 33 44 18 24 1016.8 1016.8 0.0
19/08:00am 24.8 15.3 -13.0 7 13.6 NNE 33 44 18 24 1016.6 1016.6 0.0
19/07:30am 23.4 14.9 -12.2 8 12.8 NNE 28 39 15 21 1016.4 1016.4 0.0
19/07:00am 22.2 14.1 -11.4 9 12.1 NNE 26 33 14 18 1016.1 1016.1 0.0
19/06:30am 22.3 14.8 -8.9 11 11.8 NNE 24 32 13 17 1015.9 1015.9 0.0
19/06:00am 22.7 23.2 22.7 100 0.0 NNE 24 32 13 17 1015.7 1015.7 0.0
19/05:30am 22.8 23.4 22.8 100 0.0 NNE 24 32 13 17 1015.3 1015.3 0.0
19/05:00am 23.9 24.3 23.8 99 0.1 NNE 28 37 15 20 1015.1 1015.1 0.0
19/04:30am 24.4 24.8 24.4 100 0.0 NNE 30 39 16 21 1015.0 1015.0 0.0
19/04:00am 24.6 25.5 24.6 100 0.0 NNE 28 37 15 20 1014.9 1014.9 0.0
19/03:30am 25.3 26.6 25.2 99 0.1 NNE 28 35 15 19 1014.9 1014.9 0.0
19/03:00am 25.7 27.1 25.4 98 0.2 NNE 28 39 15 21 1015.1 1015.1 0.0
19/02:30am 25.9 27.5 25.8 99 0.1 NNE 28 35 15 19 1015.3 1015.3 0.0
19/02:00am 26.1 27.9 26.1 100 0.0 NNE 28 35 15 19 1015.5 1015.5 0.0
19/01:30am 26.5 29.7 26.4 99 0.1 NNE 22 30 12 16 1015.7 1015.7 0.0
19/01:00am 27.0 30.2 27.0 100 0.0 NNE 24 32 13 17 1015.8 1015.8 0.0
19/12:30am 25.6 28.6 25.3 98 0.2 NE 19 22 10 12 1015.8 1015.8 0.0
19/12:00am 24.5 26.8 24.1 98 0.3 NE 19 24 10 13 1015.8 1015.8 0.0
 
Date/Time
CDT
Temp
°C
App
Temp
°C
Dew
Point
Rel
Hum
%
Delta-T
°C
Wind Press
QNH
hPa
Press
MSL
hPa
Rain
since 9 am
mm
Dir
 
Spd
km/h
Gust
km/h
Spd
kts
Gust
kts
18/11:30pm 23.5 25.8 23.4 99 0.1 NE 17 19 9 10 1015.9 1015.9 0.0
18/11:00pm 24.6 27.1 24.5 99 0.1 NE 19 22 10 12 1016.0 1016.0 0.0
18/10:30pm 24.3 27.0 24.2 99 0.1 NE 17 19 9 10 1015.9 1015.9 0.0
18/10:00pm 24.6 27.5 24.5 99 0.1 NE 17 19 9 10 1016.0 1016.0 0.0
18/09:30pm 24.7 27.7 24.6 99 0.1 NE 17 19 9 10 1015.8 1015.8 0.0
18/09:00pm 25.8 29.5 25.7 99 0.1 NE 17 20 9 11 1015.5 1015.5 0.0
18/08:30pm 26.4 20.6 -4.9 12 13.3 NE 17 20 9 11 1015.4 1015.4 0.0
18/08:00pm 27.0 20.7 -10.7 7 14.5 NE 17 19 9 10 1015.1 1015.1 0.0
18/07:30pm 29.6 23.7 -9.8 7 15.8 NNE 15 17 8 9 1014.8 1014.8 0.0
18/07:00pm 33.0 26.4 -15.7 4 18.3 N 17 26 9 14 1014.6 1014.6 0.0
18/06:30pm 34.9 27.5 -20.5 2 19.7 NNE 20 30 11 16 1014.4 1014.4 0.0
18/06:00pm 35.4 27.5 -22.8 2 20.1 N 22 30 12 16 1014.4 1014.4 0.0
18/05:30pm 35.7 28.2 -23.4 2 20.3 NNE 20 28 11 15 1014.3 1014.3 0.0
18/05:00pm 35.5 28.3 -21.6 2 20.1 N 19 28 10 15 1014.5 1014.5 0.0
18/04:30pm 36.3 28.1 -22.5 2 20.6 N 24 32 13 17 1014.6 1014.6 0.0
18/04:00pm 36.7 29.2 -24.1 1 20.9 N 20 35 11 19 1014.8 1014.8 0.0
18/03:30pm 36.0 27.8 -22.0 2 20.4 N 24 41 13 22 1015.3 1015.3 0.0
18/03:00pm 36.4 27.8 -21.5 2 20.6 N 26 37 14 20 1015.8 1015.8 0.0
18/02:30pm 34.2 25.3 -20.7 2 19.3 N 28 37 15 20 1016.2 1016.2 0.0
18/02:00pm 34.2 24.5 -20.8 2 19.3 N 32 44 17 24 1016.6 1016.6 0.0
18/01:30pm 33.9 23.9 -24.4 2 19.3 N 33 46 18 25 1016.8 1016.8 0.0
18/01:00pm 33.4 23.1 -21.9 2 18.9 N 35 46 19 25 1017.3 1017.3 0.0
18/12:30pm 33.2 23.3 -20.3 2 18.7 N 33 44 18 24 1017.6 1017.6 0.0
18/12:00pm 32.6 22.4 -19.2 3 18.3 N 35 52 19 28 1017.8 1017.8 0.0
18/11:30am 32.2 22.0 -19.6 3 18.1 N 35 50 19 27 1018.0 1018.0 0.0
18/11:20am 32.6 22.5 -17.7 3 18.2 N 35 54 19 29 1018.1 1018.1 0.0
18/11:00am 31.2 19.9 -18.9 3 17.5 N 41 56 22 30 1018.2 1018.2 0.0
18/10:30am 30.4 20.2 -18.0 3 17.0 N 35 48 19 26 1018.3 1018.3 0.0
18/10:00am 30.2 20.0 -18.1 3 16.9 N 35 57 19 31 1018.4 1018.4 0.0
18/09:56am 29.7 20.1 -17.7 4 16.6 N 32 50 17 27 1018.4 1018.4 0.0
18/09:30am 28.0 18.5 -16.6 4 15.6 N 32 44 17 24 1018.6 1018.6 0.0
18/09:04am 26.2 17.1 -15.9 5 14.6 N 30 48 16 26 1018.3 1018.3 0.0
18/09:00am 26.1 17.0 -15.4 5 14.5 N 30 44 16 24 1018.3 1018.3 0.0
18/08:30am 24.3 15.2 -15.6 6 13.6 N 30 41 16 22 1018.1 1018.1 0.0
18/08:00am 22.0 13.7 -14.1 8 12.3 N 26 35 14 19 1018.3 1018.3 0.0
18/07:30am 18.3 11.4 -10.7 13 10.1 NNE 20 24 11 13 1018.1 1018.1 0.0
18/07:00am 15.4 10.4 -8.5 18 8.4 N 11 15 6 8 1018.3 1018.3 0.0
18/06:30am 17.1 12.0 -9.2 15 9.3 N 11 13 6 7 1017.8 1017.8 0.0
18/06:00am 18.8 14.7 -6.7 17 9.7 N 7 15 4 8 1017.5 1017.5 0.0
18/05:30am 20.1 13.7 -11.0 11 11.0 N 17 20 9 11 1016.8 1016.8 0.0
18/05:00am 21.1 14.3 -11.8 10 11.6 NNE 19 24 10 13 1016.5 1016.5 0.0
18/04:30am 21.9 14.8 -13.6 8 12.2 NNE 20 28 11 15 1016.4 1016.4 0.0
18/04:00am 22.4 14.9 -14.0 8 12.5 NNE 22 33 12 18 1015.9 1015.9 0.0
18/03:30am 23.1 15.6 -14.5 7 12.9 NNE 22 30 12 16 1016.0 1016.0 0.0
18/03:00am 23.7 15.7 -16.6 6 13.4 NNE 24 32 13 17 1015.8 1015.8 0.0
18/02:30am 23.7 15.7 -15.5 6 13.3 N 24 32 13 17 1016.0 1016.0 0.0
18/02:00am 23.9 15.9 -16.7 6 13.5 NNE 24 33 13 18 1016.3 1016.3 0.0
18/01:30am 23.4 16.2 -15.1 6 13.1 NNE 20 24 11 13 1016.6 1016.6 0.0
18/01:00am 21.9 15.8 -12.7 9 12.1 NNE 15 19 8 10 1016.6 1016.6 0.0
18/12:30am 21.3 15.3 -11.0 10 11.6 NE 15 17 8 9 1016.6 1016.6 0.0
18/12:00am 24.6 17.7 -14.0 7 13.6 NNE 19 24 10 13 1016.5 1016.5 0.0
 
Date/Time
CDT
Temp
°C
App
Temp
°C
Dew
Point
Rel
Hum
%
Delta-T
°C
Wind Press
QNH
hPa
Press
MSL
hPa
Rain
since 9 am
mm
Dir
 
Spd
km/h
Gust
km/h
Spd
kts
Gust
kts
17/11:30pm 26.9 19.6 -18.8 4 15.2 NNE 20 26 11 14 1016.6 1016.6 0.0
17/11:00pm 23.9 17.4 -12.6 8 13.1 NE 17 19 9 10 1016.6 1016.6 0.0
17/10:30pm 23.4 16.9 -13.1 8 12.9 NE 17 20 9 11 1016.6 1016.6 0.0
17/10:00pm 22.9 16.1 -12.7 8 12.6 NE 19 20 10 11 1016.5 1016.5 0.0
17/09:30pm 22.9 16.5 -11.0 9 12.4 NE 17 19 9 10 1016.3 1016.3 0.0
17/09:00pm 23.6 18.2 -8.4 11 12.4 NE 13 15 7 8 1016.1 1016.1 0.0
17/08:30pm 25.0 18.7 -10.4 9 13.4 NE 17 17 9 9 1015.6 1015.6 0.0
17/08:00pm 26.5 21.3 -6.3 11 13.6 NE 13 17 7 9 1015.3 1015.3 0.0
17/07:30pm 30.5 24.9 -11.5 6 16.5 N 13 15 7 8 1015.1 1015.1 0.0
17/07:00pm 33.1 25.8 -17.7 3 18.5 N 20 28 11 15 1014.9 1014.9 0.0

Other Formats:

Comma delimited format used in spreadsheet applications
http://www.bom.gov.au/fwo/IDS60801/IDS60801.94653.axf

JavaScript Object Notation format (JSON) in row-major order
http://www.bom.gov.au/fwo/IDS60801/IDS60801.94653.json